Upstream stations:
Downstream station:
SHEF ID: BFFO2 Cimarron River near Buffalo, OK
STATION TYPE:
Regulating: Stage = 6.00, Flow = 750
PRECIP STAGE RIV-FLOW BAT-LOAD
in ft cfs volt
Ccp-Rev Ccp-Rev Ccp-Rev Ccp-Rev
(US/Central)
02/01 00:00 0.00 3.32 18 12.73
02/01 01:00 0.00 3.31 17 12.65
02/01 02:00 0.00 3.31 17 12.65
02/01 03:00 0.00 3.34 20 12.65
02/01 04:00 0.00 3.33 19 12.57
02/01 05:00 0.00 3.30 16 12.57
02/01 06:00 0.00 3.30 16 12.57
02/01 07:00 0.00 3.30 16 12.57
02/01 08:00 0.00 3.30 16 12.49
02/01 09:00 0.00 3.31 17 12.57
02/01 10:00 0.00 3.32 18 12.57
02/01 11:00 0.00 3.29 16 12.73
02/01 12:00 0.00 3.30 16 13.05
02/01 13:00 0.00 3.31 17 13.05
02/01 14:00 0.00 3.30 16 13.05
02/01 15:00 0.00 3.30 16 13.05
02/01 16:00 0.00 3.31 17 12.89
02/01 17:00 0.00 3.30 16 12.73
02/01 18:00 0.00 3.33 19 12.65
02/01 19:00 0.00 3.30 16 12.57
02/01 20:00 0.00 3.31 17 12.49
02/01 21:00 0.00 3.29 16 12.49
02/01 22:00 0.00 3.30 16 12.49
02/01 23:00 0.00 3.30 16 12.49